sensor_id;sensor_type;location;lat;lon;timestamp;temperature;humidity
32187;DHT22;18686;53.084;8.872;2023-04-21T00:01:04;8.50;99.90
32187;DHT22;18686;53.084;8.872;2023-04-21T00:03:34;8.50;99.90
32187;DHT22;18686;53.084;8.872;2023-04-21T00:06:05;8.50;99.90
32187;DHT22;18686;53.084;8.872;2023-04-21T00:08:33;8.50;99.90
32187;DHT22;18686;53.084;8.872;2023-04-21T00:11:07;8.50;99.90
32187;DHT22;18686;53.084;8.872;2023-04-21T00:13:35;8.50;99.90
32187;DHT22;18686;53.084;8.872;2023-04-21T00:16:05;8.50;99.90
32187;DHT22;18686;53.084;8.872;2023-04-21T00:18:33;8.50;99.90
32187;DHT22;18686;53.084;8.872;2023-04-21T00:21:01;8.50;99.90
32187;DHT22;18686;53.084;8.872;2023-04-21T00:23:30;8.50;99.90
32187;DHT22;18686;53.084;8.872;2023-04-21T00:25:58;8.50;99.90
32187;DHT22;18686;53.084;8.872;2023-04-21T00:28:29;8.50;99.90
32187;DHT22;18686;53.084;8.872;2023-04-21T00:30:58;8.50;99.90
32187;DHT22;18686;53.084;8.872;2023-04-21T00:33:26;8.50;99.90
32187;DHT22;18686;53.084;8.872;2023-04-21T00:35:55;8.40;99.90
32187;DHT22;18686;53.084;8.872;2023-04-21T00:38:26;8.40;99.90
32187;DHT22;18686;53.084;8.872;2023-04-21T00:40:54;8.40;99.90
32187;DHT22;18686;53.084;8.872;2023-04-21T00:43:22;8.50;99.90
32187;DHT22;18686;53.084;8.872;2023-04-21T00:45:54;8.50;99.90
32187;DHT22;18686;53.084;8.872;2023-04-21T00:48:22;8.50;99.90
32187;DHT22;18686;53.084;8.872;2023-04-21T00:50:51;8.50;99.90
32187;DHT22;18686;53.084;8.872;2023-04-21T00:53:19;8.50;99.90
32187;DHT22;18686;53.084;8.872;2023-04-21T00:55:49;8.50;99.90
32187;DHT22;18686;53.084;8.872;2023-04-21T00:58:18;8.40;99.90
32187;DHT22;18686;53.084;8.872;2023-04-21T01:00:47;8.40;99.90
32187;DHT22;18686;53.084;8.872;2023-04-21T01:03:16;8.40;99.90
32187;DHT22;18686;53.084;8.872;2023-04-21T01:05:47;8.40;99.90
32187;DHT22;18686;53.084;8.872;2023-04-21T01:08:16;8.40;99.90
32187;DHT22;18686;53.084;8.872;2023-04-21T01:10:44;8.30;99.90
32187;DHT22;18686;53.084;8.872;2023-04-21T01:13:12;8.30;99.90
32187;DHT22;18686;53.084;8.872;2023-04-21T01:15:40;8.30;99.90
32187;DHT22;18686;53.084;8.872;2023-04-21T01:18:09;8.30;99.90
32187;DHT22;18686;53.084;8.872;2023-04-21T01:20:40;8.20;99.90
32187;DHT22;18686;53.084;8.872;2023-04-21T01:23:13;8.20;99.90
32187;DHT22;18686;53.084;8.872;2023-04-21T01:25:43;8.20;99.90
32187;DHT22;18686;53.084;8.872;2023-04-21T01:28:11;8.20;99.90
32187;DHT22;18686;53.084;8.872;2023-04-21T01:30:39;8.20;99.90
32187;DHT22;18686;53.084;8.872;2023-04-21T01:33:07;8.10;99.90
32187;DHT22;18686;53.084;8.872;2023-04-21T01:35:36;8.10;99.90
32187;DHT22;18686;53.084;8.872;2023-04-21T01:38:04;8.10;99.90
32187;DHT22;18686;53.084;8.872;2023-04-21T01:40:33;8.10;99.90
32187;DHT22;18686;53.084;8.872;2023-04-21T01:43:01;8.10;99.90
32187;DHT22;18686;53.084;8.872;2023-04-21T01:45:30;8.00;99.90
32187;DHT22;18686;53.084;8.872;2023-04-21T01:48:00;8.00;99.90
32187;DHT22;18686;53.084;8.872;2023-04-21T01:50:30;8.00;99.90
32187;DHT22;18686;53.084;8.872;2023-04-21T01:52:59;7.90;99.90
32187;DHT22;18686;53.084;8.872;2023-04-21T01:55:27;7.90;99.90
32187;DHT22;18686;53.084;8.872;2023-04-21T01:57:56;7.90;99.90
32187;DHT22;18686;53.084;8.872;2023-04-21T02:00:25;7.90;99.90
32187;DHT22;18686;53.084;8.872;2023-04-21T02:02:53;7.90;99.90
32187;DHT22;18686;53.084;8.872;2023-04-21T02:05:22;7.90;99.90
32187;DHT22;18686;53.084;8.872;2023-04-21T02:07:50;7.90;99.90
32187;DHT22;18686;53.084;8.872;2023-04-21T02:10:21;7.80;99.90
32187;DHT22;18686;53.084;8.872;2023-04-21T02:12:49;7.90;99.90
32187;DHT22;18686;53.084;8.872;2023-04-21T02:15:19;7.90;99.90
32187;DHT22;18686;53.084;8.872;2023-04-21T02:17:47;7.90;99.90
32187;DHT22;18686;53.084;8.872;2023-04-21T02:20:15;7.90;99.90
32187;DHT22;18686;53.084;8.872;2023-04-21T02:22:43;7.90;99.90
32187;DHT22;18686;53.084;8.872;2023-04-21T02:25:11;7.90;99.90
32187;DHT22;18686;53.084;8.872;2023-04-21T02:27:39;7.80;99.90
32187;DHT22;18686;53.084;8.872;2023-04-21T02:30:08;7.80;99.90
32187;DHT22;18686;53.084;8.872;2023-04-21T02:32:38;7.80;99.90
32187;DHT22;18686;53.084;8.872;2023-04-21T02:35:07;7.90;99.90
32187;DHT22;18686;53.084;8.872;2023-04-21T02:37:35;7.80;99.90
32187;DHT22;18686;53.084;8.872;2023-04-21T02:40:04;7.80;99.90
32187;DHT22;18686;53.084;8.872;2023-04-21T02:42:33;7.80;99.90
32187;DHT22;18686;53.084;8.872;2023-04-21T02:45:01;7.80;99.90
32187;DHT22;18686;53.084;8.872;2023-04-21T02:47:29;7.80;99.90
32187;DHT22;18686;53.084;8.872;2023-04-21T02:49:59;7.80;99.90
32187;DHT22;18686;53.084;8.872;2023-04-21T02:52:27;7.80;99.90
32187;DHT22;18686;53.084;8.872;2023-04-21T02:54:55;7.80;99.90
32187;DHT22;18686;53.084;8.872;2023-04-21T02:57:24;7.80;99.90
32187;DHT22;18686;53.084;8.872;2023-04-21T02:59:52;7.80;99.90
32187;DHT22;18686;53.084;8.872;2023-04-21T03:02:20;7.80;99.90
32187;DHT22;18686;53.084;8.872;2023-04-21T03:04:48;7.80;99.90
32187;DHT22;18686;53.084;8.872;2023-04-21T03:07:19;7.80;99.90
32187;DHT22;18686;53.084;8.872;2023-04-21T03:09:48;7.80;99.90
32187;DHT22;18686;53.084;8.872;2023-04-21T03:12:16;7.80;99.90
32187;DHT22;18686;53.084;8.872;2023-04-21T03:14:44;7.80;99.90
32187;DHT22;18686;53.084;8.872;2023-04-21T03:17:12;7.70;99.90
32187;DHT22;18686;53.084;8.872;2023-04-21T03:19:41;7.70;99.90
32187;DHT22;18686;53.084;8.872;2023-04-21T03:22:10;7.70;99.90
32187;DHT22;18686;53.084;8.872;2023-04-21T03:24:39;7.70;99.90
32187;DHT22;18686;53.084;8.872;2023-04-21T03:27:08;7.70;99.90
32187;DHT22;18686;53.084;8.872;2023-04-21T03:29:37;7.70;99.90
32187;DHT22;18686;53.084;8.872;2023-04-21T03:32:05;7.60;99.90
32187;DHT22;18686;53.084;8.872;2023-04-21T03:34:33;7.60;99.90
32187;DHT22;18686;53.084;8.872;2023-04-21T03:37:03;7.60;99.90
32187;DHT22;18686;53.084;8.872;2023-04-21T03:39:32;7.60;99.90
32187;DHT22;18686;53.084;8.872;2023-04-21T03:42:02;7.60;99.90
32187;DHT22;18686;53.084;8.872;2023-04-21T03:44:30;7.60;99.90
32187;DHT22;18686;53.084;8.872;2023-04-21T03:47:00;7.60;99.90
32187;DHT22;18686;53.084;8.872;2023-04-21T03:49:33;7.50;99.90
32187;DHT22;18686;53.084;8.872;2023-04-21T03:52:01;7.50;99.90
32187;DHT22;18686;53.084;8.872;2023-04-21T03:54:29;7.50;99.90
32187;DHT22;18686;53.084;8.872;2023-04-21T03:56:57;7.50;99.90
32187;DHT22;18686;53.084;8.872;2023-04-21T03:59:26;7.50;99.90
32187;DHT22;18686;53.084;8.872;2023-04-21T04:01:54;7.50;99.90
32187;DHT22;18686;53.084;8.872;2023-04-21T04:04:23;7.50;99.90
32187;DHT22;18686;53.084;8.872;2023-04-21T04:06:51;7.50;99.90
32187;DHT22;18686;53.084;8.872;2023-04-21T04:09:20;7.50;99.90
32187;DHT22;18686;53.084;8.872;2023-04-21T04:11:48;7.50;99.90
32187;DHT22;18686;53.084;8.872;2023-04-21T04:14:16;7.50;99.90
32187;DHT22;18686;53.084;8.872;2023-04-21T04:16:46;7.50;99.90
32187;DHT22;18686;53.084;8.872;2023-04-21T04:19:14;7.50;99.90
32187;DHT22;18686;53.084;8.872;2023-04-21T04:21:42;7.50;99.90
32187;DHT22;18686;53.084;8.872;2023-04-21T04:24:10;7.40;99.90
32187;DHT22;18686;53.084;8.872;2023-04-21T04:26:39;7.40;99.90
32187;DHT22;18686;53.084;8.872;2023-04-21T04:29:08;7.50;99.90
32187;DHT22;18686;53.084;8.872;2023-04-21T04:31:37;7.50;99.90
32187;DHT22;18686;53.084;8.872;2023-04-21T04:34:06;7.50;99.90
32187;DHT22;18686;53.084;8.872;2023-04-21T04:36:35;7.50;99.90
32187;DHT22;18686;53.084;8.872;2023-04-21T04:39:03;7.50;99.90
32187;DHT22;18686;53.084;8.872;2023-04-21T04:41:35;7.50;99.90
32187;DHT22;18686;53.084;8.872;2023-04-21T04:44:03;7.50;99.90
32187;DHT22;18686;53.084;8.872;2023-04-21T04:46:32;7.50;99.90
32187;DHT22;18686;53.084;8.872;2023-04-21T04:49:01;7.50;99.90
32187;DHT22;18686;53.084;8.872;2023-04-21T04:51:30;7.60;99.90
32187;DHT22;18686;53.084;8.872;2023-04-21T04:53:59;7.50;99.90
32187;DHT22;18686;53.084;8.872;2023-04-21T04:56:29;7.60;99.90
32187;DHT22;18686;53.084;8.872;2023-04-21T04:58:57;7.60;99.90
32187;DHT22;18686;53.084;8.872;2023-04-21T05:01:25;7.60;99.90
32187;DHT22;18686;53.084;8.872;2023-04-21T05:03:56;7.60;99.90
32187;DHT22;18686;53.084;8.872;2023-04-21T05:06:25;7.70;99.90
32187;DHT22;18686;53.084;8.872;2023-04-21T05:08:55;7.70;99.90
32187;DHT22;18686;53.084;8.872;2023-04-21T05:11:23;7.80;99.90
32187;DHT22;18686;53.084;8.872;2023-04-21T05:13:51;7.80;99.90
32187;DHT22;18686;53.084;8.872;2023-04-21T05:16:21;7.90;99.90
32187;DHT22;18686;53.084;8.872;2023-04-21T05:18:49;8.00;99.90
32187;DHT22;18686;53.084;8.872;2023-04-21T05:21:23;8.00;99.90
32187;DHT22;18686;53.084;8.872;2023-04-21T05:23:55;8.10;99.90
32187;DHT22;18686;53.084;8.872;2023-04-21T05:26:24;8.20;99.90
32187;DHT22;18686;53.084;8.872;2023-04-21T05:28:53;8.30;99.90
32187;DHT22;18686;53.084;8.872;2023-04-21T05:31:22;8.30;99.90
32187;DHT22;18686;53.084;8.872;2023-04-21T05:33:50;8.40;99.90
32187;DHT22;18686;53.084;8.872;2023-04-21T05:36:18;8.60;99.90
32187;DHT22;18686;53.084;8.872;2023-04-21T05:38:47;8.60;99.90
32187;DHT22;18686;53.084;8.872;2023-04-21T05:41:16;8.80;99.90
32187;DHT22;18686;53.084;8.872;2023-04-21T05:43:44;8.90;99.90
32187;DHT22;18686;53.084;8.872;2023-04-21T05:46:13;8.90;99.90
32187;DHT22;18686;53.084;8.872;2023-04-21T05:48:41;9.00;99.90
32187;DHT22;18686;53.084;8.872;2023-04-21T05:51:10;9.10;99.90
32187;DHT22;18686;53.084;8.872;2023-04-21T05:53:39;9.30;99.90
32187;DHT22;18686;53.084;8.872;2023-04-21T05:56:08;9.40;99.90
32187;DHT22;18686;53.084;8.872;2023-04-21T05:58:38;9.50;99.90
32187;DHT22;18686;53.084;8.872;2023-04-21T06:01:07;9.60;99.90
32187;DHT22;18686;53.084;8.872;2023-04-21T06:03:35;9.80;99.90
32187;DHT22;18686;53.084;8.872;2023-04-21T06:06:05;9.90;99.90
32187;DHT22;18686;53.084;8.872;2023-04-21T06:08:33;10.10;99.90
32187;DHT22;18686;53.084;8.872;2023-04-21T06:11:02;10.30;99.90
32187;DHT22;18686;53.084;8.872;2023-04-21T06:13:29;10.40;99.90
32187;DHT22;18686;53.084;8.872;2023-04-21T06:15:59;10.50;99.90
32187;DHT22;18686;53.084;8.872;2023-04-21T06:18:27;10.70;99.90
32187;DHT22;18686;53.084;8.872;2023-04-21T06:20:55;10.90;99.90
32187;DHT22;18686;53.084;8.872;2023-04-21T06:23:23;11.10;99.90
32187;DHT22;18686;53.084;8.872;2023-04-21T06:25:58;11.30;99.90
32187;DHT22;18686;53.084;8.872;2023-04-21T06:28:30;11.50;99.90
32187;DHT22;18686;53.084;8.872;2023-04-21T06:31:00;11.70;99.90
32187;DHT22;18686;53.084;8.872;2023-04-21T06:33:29;11.80;99.90
32187;DHT22;18686;53.084;8.872;2023-04-21T06:35:57;12.00;99.90
32187;DHT22;18686;53.084;8.872;2023-04-21T06:38:25;12.20;99.90
32187;DHT22;18686;53.084;8.872;2023-04-21T06:40:53;12.50;99.90
32187;DHT22;18686;53.084;8.872;2023-04-21T06:43:21;12.70;99.90
32187;DHT22;18686;53.084;8.872;2023-04-21T06:45:49;12.90;99.90
32187;DHT22;18686;53.084;8.872;2023-04-21T06:48:18;13.00;99.80
32187;DHT22;18686;53.084;8.872;2023-04-21T06:50:47;13.20;98.50
32187;DHT22;18686;53.084;8.872;2023-04-21T06:53:15;13.20;98.10
32187;DHT22;18686;53.084;8.872;2023-04-21T06:55:44;13.30;97.90
32187;DHT22;18686;53.084;8.872;2023-04-21T06:58:12;13.50;97.30
32187;DHT22;18686;53.084;8.872;2023-04-21T07:00:40;13.60;97.10
32187;DHT22;18686;53.084;8.872;2023-04-21T07:03:08;13.80;96.10
32187;DHT22;18686;53.084;8.872;2023-04-21T07:05:38;13.90;96.10
32187;DHT22;18686;53.084;8.872;2023-04-21T07:08:06;14.10;95.40
32187;DHT22;18686;53.084;8.872;2023-04-21T07:10:34;14.30;95.00
32187;DHT22;18686;53.084;8.872;2023-04-21T07:13:02;14.60;94.20
32187;DHT22;18686;53.084;8.872;2023-04-21T07:15:30;14.70;93.30
32187;DHT22;18686;53.084;8.872;2023-04-21T07:17:58;14.90;92.40
32187;DHT22;18686;53.084;8.872;2023-04-21T07:20:27;15.10;91.40
32187;DHT22;18686;53.084;8.872;2023-04-21T07:22:56;15.30;91.10
32187;DHT22;18686;53.084;8.872;2023-04-21T07:25:25;15.50;91.10
32187;DHT22;18686;53.084;8.872;2023-04-21T07:27:53;15.70;90.30
32187;DHT22;18686;53.084;8.872;2023-04-21T07:30:21;15.90;89.00
32187;DHT22;18686;53.084;8.872;2023-04-21T07:32:49;16.10;87.10
32187;DHT22;18686;53.084;8.872;2023-04-21T07:35:17;16.30;86.10
32187;DHT22;18686;53.084;8.872;2023-04-21T07:37:45;16.60;84.10
32187;DHT22;18686;53.084;8.872;2023-04-21T07:40:15;16.90;81.20
32187;DHT22;18686;53.084;8.872;2023-04-21T07:42:43;17.20;80.80
32187;DHT22;18686;53.084;8.872;2023-04-21T07:45:12;17.40;78.20
32187;DHT22;18686;53.084;8.872;2023-04-21T07:47:40;17.70;75.80
32187;DHT22;18686;53.084;8.872;2023-04-21T07:50:09;18.00;72.90
32187;DHT22;18686;53.084;8.872;2023-04-21T07:52:37;18.30;72.10
32187;DHT22;18686;53.084;8.872;2023-04-21T07:55:05;18.50;70.70
32187;DHT22;18686;53.084;8.872;2023-04-21T07:57:35;18.80;68.90
32187;DHT22;18686;53.084;8.872;2023-04-21T08:00:05;19.20;66.60
32187;DHT22;18686;53.084;8.872;2023-04-21T08:02:40;19.50;64.50
32187;DHT22;18686;53.084;8.872;2023-04-21T08:05:08;19.70;62.80
32187;DHT22;18686;53.084;8.872;2023-04-21T08:07:37;19.90;61.10
32187;DHT22;18686;53.084;8.872;2023-04-21T08:10:08;20.20;60.00
32187;DHT22;18686;53.084;8.872;2023-04-21T08:12:38;20.60;59.10
32187;DHT22;18686;53.084;8.872;2023-04-21T08:15:07;20.90;57.80
32187;DHT22;18686;53.084;8.872;2023-04-21T08:17:38;21.20;56.00
32187;DHT22;18686;53.084;8.872;2023-04-21T08:20:07;21.50;54.90
32187;DHT22;18686;53.084;8.872;2023-04-21T08:22:36;21.70;54.30
32187;DHT22;18686;53.084;8.872;2023-04-21T08:25:05;22.00;53.20
32187;DHT22;18686;53.084;8.872;2023-04-21T08:27:33;22.20;51.70
32187;DHT22;18686;53.084;8.872;2023-04-21T08:30:06;22.50;50.60
32187;DHT22;18686;53.084;8.872;2023-04-21T08:32:35;22.70;49.80
32187;DHT22;18686;53.084;8.872;2023-04-21T08:35:03;22.70;49.80
32187;DHT22;18686;53.084;8.872;2023-04-21T08:37:32;23.00;48.90
32187;DHT22;18686;53.084;8.872;2023-04-21T08:40:02;23.30;48.40
32187;DHT22;18686;53.084;8.872;2023-04-21T08:42:31;23.50;47.00
32187;DHT22;18686;53.084;8.872;2023-04-21T08:45:00;23.80;46.70
32187;DHT22;18686;53.084;8.872;2023-04-21T08:47:29;24.00;45.70
32187;DHT22;18686;53.084;8.872;2023-04-21T08:49:58;24.30;45.30
32187;DHT22;18686;53.084;8.872;2023-04-21T08:52:28;24.50;44.60
32187;DHT22;18686;53.084;8.872;2023-04-21T08:54:56;24.70;43.40
32187;DHT22;18686;53.084;8.872;2023-04-21T08:57:25;25.00;43.20
32187;DHT22;18686;53.084;8.872;2023-04-21T09:00:13;25.30;42.60
32187;DHT22;18686;53.084;8.872;2023-04-21T09:02:56;25.50;41.10
32187;DHT22;18686;53.084;8.872;2023-04-21T09:05:31;25.60;40.90
32187;DHT22;18686;53.084;8.872;2023-04-21T09:08:08;25.80;40.40
32187;DHT22;18686;53.084;8.872;2023-04-21T09:10:43;26.10;40.40
32187;DHT22;18686;53.084;8.872;2023-04-21T09:13:12;26.40;39.80
32187;DHT22;18686;53.084;8.872;2023-04-21T09:15:41;26.60;39.20
32187;DHT22;18686;53.084;8.872;2023-04-21T09:18:13;26.90;38.60
32187;DHT22;18686;53.084;8.872;2023-04-21T09:20:42;27.10;37.60
32187;DHT22;18686;53.084;8.872;2023-04-21T09:23:10;27.40;36.30
32187;DHT22;18686;53.084;8.872;2023-04-21T09:25:40;27.70;36.00
32187;DHT22;18686;53.084;8.872;2023-04-21T09:28:09;27.80;35.90
32187;DHT22;18686;53.084;8.872;2023-04-21T09:30:58;27.80;35.30
32187;DHT22;18686;53.084;8.872;2023-04-21T09:33:27;27.70;35.30
32187;DHT22;18686;53.084;8.872;2023-04-21T09:36:20;28.00;34.90
32187;DHT22;18686;53.084;8.872;2023-04-21T09:38:54;28.50;34.50
32187;DHT22;18686;53.084;8.872;2023-04-21T09:41:42;28.80;34.00
32187;DHT22;18686;53.084;8.872;2023-04-21T09:44:11;29.20;33.20
32187;DHT22;18686;53.084;8.872;2023-04-21T09:46:42;29.30;32.40
32187;DHT22;18686;53.084;8.872;2023-04-21T09:49:13;29.50;32.10
32187;DHT22;18686;53.084;8.872;2023-04-21T09:51:44;29.70;32.20
32187;DHT22;18686;53.084;8.872;2023-04-21T09:54:35;29.90;33.00
32187;DHT22;18686;53.084;8.872;2023-04-21T09:57:09;30.10;31.30
32187;DHT22;18686;53.084;8.872;2023-04-21T09:59:44;30.20;32.50
32187;DHT22;18686;53.084;8.872;2023-04-21T10:02:13;30.50;31.90
32187;DHT22;18686;53.084;8.872;2023-04-21T10:04:44;30.80;31.70
32187;DHT22;18686;53.084;8.872;2023-04-21T10:07:13;31.00;30.40
32187;DHT22;18686;53.084;8.872;2023-04-21T10:09:46;30.80;30.00
32187;DHT22;18686;53.084;8.872;2023-04-21T10:12:17;30.70;29.60
32187;DHT22;18686;53.084;8.872;2023-04-21T10:14:48;30.30;30.40
32187;DHT22;18686;53.084;8.872;2023-04-21T10:17:17;30.20;30.30
32187;DHT22;18686;53.084;8.872;2023-04-21T10:19:51;30.50;30.50
32187;DHT22;18686;53.084;8.872;2023-04-21T10:22:26;30.50;29.30
32187;DHT22;18686;53.084;8.872;2023-04-21T10:24:56;30.90;29.80
32187;DHT22;18686;53.084;8.872;2023-04-21T10:27:33;32.30;29.70
32187;DHT22;18686;53.084;8.872;2023-04-21T10:30:17;34.00;29.10
32187;DHT22;18686;53.084;8.872;2023-04-21T10:33:06;35.80;27.80
32187;DHT22;18686;53.084;8.872;2023-04-21T10:36:23;36.80;26.50
32187;DHT22;18686;53.084;8.872;2023-04-21T10:38:54;37.90;25.00
32187;DHT22;18686;53.084;8.872;2023-04-21T10:41:26;37.90;25.00
32187;DHT22;18686;53.084;8.872;2023-04-21T10:43:57;38.80;24.40
32187;DHT22;18686;53.084;8.872;2023-04-21T10:46:32;39.20;24.10
32187;DHT22;18686;53.084;8.872;2023-04-21T10:49:05;39.10;23.80
32187;DHT22;18686;53.084;8.872;2023-04-21T10:55:04;40.60;23.80
32187;DHT22;18686;53.084;8.872;2023-04-21T10:57:34;41.10;22.80
32187;DHT22;18686;53.084;8.872;2023-04-21T11:00:08;40.90;23.00
32187;DHT22;18686;53.084;8.872;2023-04-21T11:02:37;41.10;22.90
32187;DHT22;18686;53.084;8.872;2023-04-21T11:05:09;41.10;22.70
32187;DHT22;18686;53.084;8.872;2023-04-21T11:07:38;41.30;22.50
32187;DHT22;18686;53.084;8.872;2023-04-21T11:10:08;40.90;22.20
32187;DHT22;18686;53.084;8.872;2023-04-21T11:12:39;40.50;22.30
32187;DHT22;18686;53.084;8.872;2023-04-21T11:15:09;40.60;22.40
32187;DHT22;18686;53.084;8.872;2023-04-21T11:17:39;40.80;22.20
32187;DHT22;18686;53.084;8.872;2023-04-21T11:20:09;40.90;22.40
32187;DHT22;18686;53.084;8.872;2023-04-21T11:22:38;40.80;21.90
32187;DHT22;18686;53.084;8.872;2023-04-21T11:25:17;41.70;22.20
32187;DHT22;18686;53.084;8.872;2023-04-21T11:27:52;41.30;21.70
32187;DHT22;18686;53.084;8.872;2023-04-21T11:30:30;40.60;21.50
32187;DHT22;18686;53.084;8.872;2023-04-21T11:33:00;40.40;22.10
32187;DHT22;18686;53.084;8.872;2023-04-21T11:35:28;40.80;22.00
32187;DHT22;18686;53.084;8.872;2023-04-21T11:37:58;41.60;21.90
32187;DHT22;18686;53.084;8.872;2023-04-21T11:40:45;41.00;21.60
32187;DHT22;18686;53.084;8.872;2023-04-21T11:43:13;41.20;21.90
32187;DHT22;18686;53.084;8.872;2023-04-21T11:45:41;41.60;21.80
32187;DHT22;18686;53.084;8.872;2023-04-21T11:48:14;40.50;21.50
32187;DHT22;18686;53.084;8.872;2023-04-21T11:50:46;39.50;22.10
32187;DHT22;18686;53.084;8.872;2023-04-21T11:53:15;39.00;22.40
32187;DHT22;18686;53.084;8.872;2023-04-21T11:55:45;39.00;22.50
32187;DHT22;18686;53.084;8.872;2023-04-21T11:58:13;38.40;22.50
32187;DHT22;18686;53.084;8.872;2023-04-21T12:00:44;37.90;22.90
32187;DHT22;18686;53.084;8.872;2023-04-21T12:03:13;38.40;23.00
32187;DHT22;18686;53.084;8.872;2023-04-21T12:05:42;39.90;22.10
32187;DHT22;18686;53.084;8.872;2023-04-21T12:08:12;41.30;22.00
32187;DHT22;18686;53.084;8.872;2023-04-21T12:10:45;42.60;21.50
32187;DHT22;18686;53.084;8.872;2023-04-21T12:13:21;42.80;21.00
32187;DHT22;18686;53.084;8.872;2023-04-21T12:15:49;42.20;21.10
32187;DHT22;18686;53.084;8.872;2023-04-21T12:18:17;42.40;21.30
32187;DHT22;18686;53.084;8.872;2023-04-21T12:20:49;42.00;20.90
32187;DHT22;18686;53.084;8.872;2023-04-21T12:23:18;42.40;21.30
32187;DHT22;18686;53.084;8.872;2023-04-21T12:25:47;42.70;21.00
32187;DHT22;18686;53.084;8.872;2023-04-21T12:28:17;42.70;21.30
32187;DHT22;18686;53.084;8.872;2023-04-21T12:30:45;41.90;21.00
32187;DHT22;18686;53.084;8.872;2023-04-21T12:33:13;42.00;21.10
32187;DHT22;18686;53.084;8.872;2023-04-21T12:35:42;42.50;21.30
32187;DHT22;18686;53.084;8.872;2023-04-21T12:38:10;42.50;20.70
32187;DHT22;18686;53.084;8.872;2023-04-21T12:40:38;41.90;20.20
32187;DHT22;18686;53.084;8.872;2023-04-21T12:43:08;41.30;20.60
32187;DHT22;18686;53.084;8.872;2023-04-21T12:45:36;42.20;20.90
32187;DHT22;18686;53.084;8.872;2023-04-21T12:48:04;42.80;20.50
32187;DHT22;18686;53.084;8.872;2023-04-21T12:50:33;44.10;20.50
32187;DHT22;18686;53.084;8.872;2023-04-21T12:53:01;45.10;21.00
32187;DHT22;18686;53.084;8.872;2023-04-21T12:55:29;44.40;19.70
32187;DHT22;18686;53.084;8.872;2023-04-21T12:57:57;44.40;20.10
32187;DHT22;18686;53.084;8.872;2023-04-21T13:00:27;44.40;20.00
32187;DHT22;18686;53.084;8.872;2023-04-21T13:02:55;44.10;20.00
32187;DHT22;18686;53.084;8.872;2023-04-21T13:05:24;44.40;20.10
32187;DHT22;18686;53.084;8.872;2023-04-21T13:07:52;44.90;20.30
32187;DHT22;18686;53.084;8.872;2023-04-21T13:10:21;44.90;19.60
32187;DHT22;18686;53.084;8.872;2023-04-21T13:12:49;45.40;20.00
32187;DHT22;18686;53.084;8.872;2023-04-21T13:15:17;45.40;19.60
32187;DHT22;18686;53.084;8.872;2023-04-21T13:17:47;45.00;19.60
32187;DHT22;18686;53.084;8.872;2023-04-21T13:20:15;45.30;19.70
32187;DHT22;18686;53.084;8.872;2023-04-21T13:22:45;45.90;19.90
32187;DHT22;18686;53.084;8.872;2023-04-21T13:25:13;45.90;19.80
32187;DHT22;18686;53.084;8.872;2023-04-21T13:27:41;45.90;19.20
32187;DHT22;18686;53.084;8.872;2023-04-21T13:30:10;45.50;19.50
32187;DHT22;18686;53.084;8.872;2023-04-21T13:32:39;45.20;19.70
32187;DHT22;18686;53.084;8.872;2023-04-21T13:35:09;44.90;19.50
32187;DHT22;18686;53.084;8.872;2023-04-21T13:37:37;45.00;19.60
32187;DHT22;18686;53.084;8.872;2023-04-21T13:40:08;46.00;19.60
32187;DHT22;18686;53.084;8.872;2023-04-21T13:42:38;45.10;19.20
32187;DHT22;18686;53.084;8.872;2023-04-21T13:45:07;44.20;19.30
32187;DHT22;18686;53.084;8.872;2023-04-21T13:47:35;42.20;19.50
32187;DHT22;18686;53.084;8.872;2023-04-21T13:50:04;41.00;19.90
32187;DHT22;18686;53.084;8.872;2023-04-21T13:52:34;40.30;20.30
32187;DHT22;18686;53.084;8.872;2023-04-21T13:55:05;40.30;19.90
32187;DHT22;18686;53.084;8.872;2023-04-21T13:57:33;39.60;20.20
32187;DHT22;18686;53.084;8.872;2023-04-21T14:00:01;39.50;20.50
32187;DHT22;18686;53.084;8.872;2023-04-21T14:02:31;38.20;20.60
32187;DHT22;18686;53.084;8.872;2023-04-21T14:05:00;36.70;20.90
32187;DHT22;18686;53.084;8.872;2023-04-21T14:07:28;35.00;21.60
32187;DHT22;18686;53.084;8.872;2023-04-21T14:09:58;33.30;22.20
32187;DHT22;18686;53.084;8.872;2023-04-21T14:12:26;31.40;23.90
32187;DHT22;18686;53.084;8.872;2023-04-21T14:14:54;29.80;24.30
32187;DHT22;18686;53.084;8.872;2023-04-21T14:17:23;28.70;24.90
32187;DHT22;18686;53.084;8.872;2023-04-21T14:19:51;27.90;25.60
32187;DHT22;18686;53.084;8.872;2023-04-21T14:22:21;26.90;26.40
32187;DHT22;18686;53.084;8.872;2023-04-21T14:24:49;26.10;27.30
32187;DHT22;18686;53.084;8.872;2023-04-21T14:27:19;25.50;27.80
32187;DHT22;18686;53.084;8.872;2023-04-21T14:29:56;25.20;28.20
32187;DHT22;18686;53.084;8.872;2023-04-21T14:32:25;24.90;29.00
32187;DHT22;18686;53.084;8.872;2023-04-21T14:34:53;24.70;28.70
32187;DHT22;18686;53.084;8.872;2023-04-21T14:37:24;24.40;28.90
32187;DHT22;18686;53.084;8.872;2023-04-21T14:39:53;24.20;29.10
32187;DHT22;18686;53.084;8.872;2023-04-21T14:42:23;24.10;29.80
32187;DHT22;18686;53.084;8.872;2023-04-21T14:44:51;24.10;29.60
32187;DHT22;18686;53.084;8.872;2023-04-21T14:47:19;23.90;29.70
32187;DHT22;18686;53.084;8.872;2023-04-21T14:49:50;23.80;29.70
32187;DHT22;18686;53.084;8.872;2023-04-21T14:52:56;23.60;30.30
32187;DHT22;18686;53.084;8.872;2023-04-21T14:55:24;23.50;30.40
32187;DHT22;18686;53.084;8.872;2023-04-21T14:57:54;23.30;30.50
32187;DHT22;18686;53.084;8.872;2023-04-21T15:00:22;23.20;30.80
32187;DHT22;18686;53.084;8.872;2023-04-21T15:02:51;23.00;31.30
32187;DHT22;18686;53.084;8.872;2023-04-21T15:05:19;22.80;31.70
32187;DHT22;18686;53.084;8.872;2023-04-21T15:07:47;22.80;32.30
32187;DHT22;18686;53.084;8.872;2023-04-21T15:10:16;22.70;32.80
32187;DHT22;18686;53.084;8.872;2023-04-21T15:12:44;22.60;32.40
32187;DHT22;18686;53.084;8.872;2023-04-21T15:15:14;22.60;32.50
32187;DHT22;18686;53.084;8.872;2023-04-21T15:17:42;22.40;32.40
32187;DHT22;18686;53.084;8.872;2023-04-21T15:20:10;22.40;32.90
32187;DHT22;18686;53.084;8.872;2023-04-21T15:22:44;22.20;33.10
32187;DHT22;18686;53.084;8.872;2023-04-21T15:25:13;22.20;32.80
32187;DHT22;18686;53.084;8.872;2023-04-21T15:27:50;22.20;32.80
32187;DHT22;18686;53.084;8.872;2023-04-21T15:30:19;22.10;33.00
32187;DHT22;18686;53.084;8.872;2023-04-21T15:32:55;22.00;33.20
32187;DHT22;18686;53.084;8.872;2023-04-21T15:35:34;21.90;33.50
32187;DHT22;18686;53.084;8.872;2023-04-21T15:38:02;21.90;34.50
32187;DHT22;18686;53.084;8.872;2023-04-21T15:40:31;21.80;34.20
32187;DHT22;18686;53.084;8.872;2023-04-21T15:43:00;21.80;34.40
32187;DHT22;18686;53.084;8.872;2023-04-21T15:45:30;21.80;34.70
32187;DHT22;18686;53.084;8.872;2023-04-21T15:47:58;21.60;33.90
32187;DHT22;18686;53.084;8.872;2023-04-21T15:50:26;21.60;34.30
32187;DHT22;18686;53.084;8.872;2023-04-21T15:52:57;21.60;34.50
32187;DHT22;18686;53.084;8.872;2023-04-21T15:55:42;21.50;34.40
32187;DHT22;18686;53.084;8.872;2023-04-21T15:58:18;21.40;34.70